createdAt,value
2023-04-16T00:00:09.281Z,101617.44
2023-04-16T00:02:35.927Z,101627.19
2023-04-16T00:05:02.542Z,101624.63
2023-04-16T00:07:29.135Z,101615.81
2023-04-16T00:09:55.691Z,101629.09
2023-04-16T00:12:23.362Z,101627.34
2023-04-16T00:14:49.861Z,101630.97
2023-04-16T00:17:16.397Z,101623.94
2023-04-16T00:19:42.946Z,101624.75
2023-04-16T00:22:09.473Z,101629.19
2023-04-16T00:24:36.010Z,101612.44
2023-04-16T00:27:02.523Z,101616.88
2023-04-16T00:29:29.054Z,101621.34
2023-04-16T00:31:55.602Z,101616.84
2023-04-16T00:34:22.152Z,101617.75
2023-04-16T00:36:48.668Z,101615.09
2023-04-16T00:39:15.255Z,101626.59
2023-04-16T00:41:43.134Z,101618.63
2023-04-16T00:44:09.721Z,101629.19
2023-04-16T00:46:36.799Z,101635.38
2023-04-16T00:49:03.405Z,101620.34
2023-04-16T00:51:29.963Z,101615.03
2023-04-16T00:53:56.493Z,101623.00
2023-04-16T00:56:23.071Z,101638.03
2023-04-16T00:58:49.597Z,101633.53
2023-04-16T01:01:16.223Z,101618.56
2023-04-16T01:03:47.112Z,101630.94
2023-04-16T01:06:13.835Z,101636.22
2023-04-16T01:08:40.370Z,101635.38
2023-04-16T01:11:06.949Z,101640.69
2023-04-16T01:13:33.635Z,101624.72
2023-04-16T01:16:00.966Z,101635.31
2023-04-16T01:18:27.538Z,101628.25
2023-04-16T01:20:54.094Z,101630.88
2023-04-16T01:23:20.598Z,101643.25
2023-04-16T01:25:47.225Z,101638.84
2023-04-16T01:28:13.778Z,101637.09
2023-04-16T01:30:40.307Z,101644.16
2023-04-16T01:33:06.864Z,101644.16
2023-04-16T01:35:33.423Z,101648.56
2023-04-16T01:37:59.983Z,101653.91
2023-04-16T01:40:26.524Z,101656.56
2023-04-16T01:42:53.086Z,101654.81
2023-04-16T01:45:19.611Z,101659.22
2023-04-16T01:47:46.193Z,101673.34
2023-04-16T01:50:12.753Z,101655.66
2023-04-16T01:52:39.260Z,101660.94
2023-04-16T01:55:06.292Z,101663.59
2023-04-16T01:57:32.834Z,101667.13
2023-04-16T01:59:59.389Z,101675.97
2023-04-16T02:02:26.000Z,101661.81
2023-04-16T02:04:52.643Z,101664.47
2023-04-16T02:07:19.180Z,101677.75
2023-04-16T02:09:45.769Z,101674.22
2023-04-16T02:12:12.246Z,101682.16
2023-04-16T02:14:38.802Z,101689.19
2023-04-16T02:17:05.330Z,101674.19
2023-04-16T02:19:31.884Z,101678.66
2023-04-16T02:21:58.443Z,101675.97
2023-04-16T02:24:24.967Z,101675.09
2023-04-16T02:26:51.521Z,101677.75
2023-04-16T02:29:18.107Z,101690.09
2023-04-16T02:31:44.743Z,101684.84
2023-04-16T02:34:11.404Z,101681.31
2023-04-16T02:36:37.972Z,101688.38
2023-04-16T02:39:04.656Z,101687.44
2023-04-16T02:41:31.220Z,101675.09
2023-04-16T02:43:57.753Z,101676.84
2023-04-16T02:46:24.516Z,101690.97
2023-04-16T02:48:51.115Z,101690.97
2023-04-16T02:51:17.689Z,101683.88
2023-04-16T02:53:44.218Z,101683.00
2023-04-16T02:56:10.788Z,101689.19
2023-04-16T02:58:37.375Z,101700.72
2023-04-16T03:01:04.067Z,101683.03
2023-04-16T03:03:30.657Z,101690.16
2023-04-16T03:05:57.172Z,101693.69
2023-04-16T03:08:23.701Z,101690.16
2023-04-16T03:10:50.253Z,101701.66
2023-04-16T03:13:16.829Z,101689.25
2023-04-16T03:15:48.595Z,101692.81
2023-04-16T03:18:15.200Z,101700.72
2023-04-16T03:20:41.776Z,101696.34
2023-04-16T03:23:08.337Z,101696.34
2023-04-16T03:25:34.914Z,101709.56
2023-04-16T03:28:01.453Z,101699.81
2023-04-16T03:30:28.037Z,101713.09
2023-04-16T03:32:54.620Z,101711.34
2023-04-16T03:35:21.160Z,101701.59
2023-04-16T03:37:47.734Z,101702.50
2023-04-16T03:40:14.445Z,101715.75
2023-04-16T03:42:41.043Z,101697.22
2023-04-16T03:45:07.922Z,101711.34
2023-04-16T03:47:34.492Z,101714.00
2023-04-16T03:50:01.045Z,101719.31
2023-04-16T03:52:27.589Z,101700.72
2023-04-16T03:54:54.126Z,101701.59
2023-04-16T03:57:20.642Z,101706.03
2023-04-16T03:59:47.169Z,101721.97
2023-04-16T04:02:13.908Z,101721.06
2023-04-16T04:04:40.593Z,101711.34
2023-04-16T04:07:07.262Z,101717.47
2023-04-16T04:09:33.814Z,101706.03
2023-04-16T04:12:00.424Z,101710.44
2023-04-16T04:14:27.014Z,101717.53
2023-04-16T04:16:53.561Z,101721.97
2023-04-16T04:19:20.057Z,101713.19
2023-04-16T04:21:46.636Z,101726.47
2023-04-16T04:24:13.184Z,101730.00
2023-04-16T04:26:39.719Z,101737.03
2023-04-16T04:29:06.237Z,101722.03
2023-04-16T04:31:32.846Z,101726.47
2023-04-16T04:33:59.364Z,101729.13
2023-04-16T04:36:25.898Z,101729.97
2023-04-16T04:38:52.484Z,101744.13
2023-04-16T04:41:19.069Z,101743.22
2023-04-16T04:43:45.658Z,101744.13
2023-04-16T04:46:12.322Z,101733.50
2023-04-16T04:48:38.851Z,101741.47
2023-04-16T04:51:05.601Z,101752.09
2023-04-16T04:53:32.143Z,101739.72
2023-04-16T04:56:05.510Z,101751.19
2023-04-16T04:58:38.585Z,101753.88
2023-04-16T05:01:05.247Z,101755.66
2023-04-16T05:03:31.915Z,101747.66
2023-04-16T05:05:58.540Z,101745.91
2023-04-16T05:08:25.125Z,101753.81
2023-04-16T05:10:51.644Z,101751.19
2023-04-16T05:13:18.205Z,101754.69
2023-04-16T05:15:44.760Z,101760.88
2023-04-16T05:18:11.409Z,101749.38
2023-04-16T05:20:38.016Z,101764.38
2023-04-16T05:23:04.593Z,101752.91
2023-04-16T05:25:31.157Z,101763.53
2023-04-16T05:27:57.670Z,101761.78
2023-04-16T05:30:24.262Z,101769.75
2023-04-16T05:32:50.818Z,101760.84
2023-04-16T05:35:17.790Z,101779.41
2023-04-16T05:37:44.491Z,101783.78
2023-04-16T05:40:13.119Z,101774.09
2023-04-16T05:42:39.705Z,101788.22
2023-04-16T05:45:06.852Z,101794.41
2023-04-16T05:47:33.402Z,101790.06
2023-04-16T05:50:00.010Z,101803.28
2023-04-16T05:52:26.577Z,101792.66
2023-04-16T05:54:53.138Z,101796.19
2023-04-16T05:57:19.632Z,101800.63
2023-04-16T05:59:46.194Z,101810.31
2023-04-16T06:02:12.767Z,101797.06
2023-04-16T06:04:39.345Z,101815.63
2023-04-16T06:07:05.942Z,101808.53
2023-04-16T06:09:32.487Z,101801.44
2023-04-16T06:11:59.339Z,101815.59
2023-04-16T06:14:25.846Z,101814.72
2023-04-16T06:16:52.390Z,101805.84
2023-04-16T06:19:18.943Z,101818.25
2023-04-16T06:21:45.509Z,101807.59
2023-04-16T06:24:12.022Z,101802.28
2023-04-16T06:26:38.631Z,101808.44
2023-04-16T06:29:05.180Z,101804.88
2023-04-16T06:31:31.779Z,101815.50
2023-04-16T06:33:58.361Z,101826.94
2023-04-16T06:36:24.905Z,101819.88
2023-04-16T06:38:51.429Z,101815.41
2023-04-16T06:41:17.934Z,101829.59
2023-04-16T06:43:44.514Z,101821.56
2023-04-16T06:46:11.005Z,101828.63
2023-04-16T06:48:37.567Z,101833.03
2023-04-16T06:51:04.300Z,101827.75
2023-04-16T06:53:30.871Z,101847.19
2023-04-16T06:55:57.434Z,101834.84
2023-04-16T06:58:23.986Z,101834.84
2023-04-16T07:00:50.542Z,101848.06
2023-04-16T07:03:17.245Z,101834.81
2023-04-16T07:05:43.847Z,101839.25
2023-04-16T07:08:10.567Z,101845.47
2023-04-16T07:10:37.170Z,101847.19
2023-04-16T07:13:03.739Z,101857.75
2023-04-16T07:15:30.296Z,101853.38
2023-04-16T07:17:56.882Z,101853.25
2023-04-16T07:20:23.460Z,101864.75
2023-04-16T07:22:50.067Z,101847.97
2023-04-16T07:25:16.597Z,101863.03
2023-04-16T07:27:43.220Z,101861.19
2023-04-16T07:30:09.926Z,101855.84
2023-04-16T07:32:36.520Z,101857.50
2023-04-16T07:35:03.102Z,101871.59
2023-04-16T07:37:29.800Z,101865.25
2023-04-16T07:39:57.363Z,101874.91
2023-04-16T07:42:24.018Z,101860.72
2023-04-16T07:44:50.507Z,101860.69
2023-04-16T07:47:17.050Z,101859.75
2023-04-16T07:49:43.611Z,101875.63
2023-04-16T07:52:10.144Z,101875.69
2023-04-16T07:54:36.702Z,101874.78
2023-04-16T07:57:03.347Z,101885.38
2023-04-16T07:59:30.141Z,101875.69
2023-04-16T08:01:56.964Z,101872.03
2023-04-16T08:04:23.683Z,101883.53
2023-04-16T08:06:51.122Z,101879.94
2023-04-16T08:09:19.417Z,101878.13
2023-04-16T08:11:45.991Z,101882.44
2023-04-16T08:14:13.377Z,101878.78
2023-04-16T08:16:40.038Z,101883.09
2023-04-16T08:19:06.569Z,101891.00
2023-04-16T08:21:33.597Z,101881.25
2023-04-16T08:24:00.156Z,101895.47
2023-04-16T08:26:26.728Z,101896.28
2023-04-16T08:28:53.274Z,101897.16
2023-04-16T08:31:19.943Z,101903.31
2023-04-16T08:33:46.505Z,101906.03
2023-04-16T08:36:13.389Z,101893.56
2023-04-16T08:38:39.902Z,101897.78
2023-04-16T08:41:06.890Z,101903.84
2023-04-16T08:43:34.079Z,101903.66
2023-04-16T08:46:00.825Z,101925.69
2023-04-16T08:48:29.332Z,101919.44
2023-04-16T08:50:55.876Z,101915.88
2023-04-16T08:53:23.175Z,101911.47
2023-04-16T08:55:50.393Z,101916.75
2023-04-16T08:58:21.047Z,101918.47
2023-04-16T09:00:48.328Z,101908.56
2023-04-16T09:03:14.938Z,101913.75
2023-04-16T09:05:42.175Z,101908.22
2023-04-16T09:08:08.909Z,101908.81
2023-04-16T09:10:35.411Z,101915.69
2023-04-16T09:13:01.973Z,101907.66
2023-04-16T09:15:28.509Z,101917.44
2023-04-16T09:17:55.073Z,101917.44
2023-04-16T09:20:21.652Z,101921.91
2023-04-16T09:22:48.349Z,101928.94
2023-04-16T09:25:15.028Z,101931.69
2023-04-16T09:27:41.695Z,101931.72
2023-04-16T09:30:21.392Z,101929.91
2023-04-16T09:32:48.049Z,101942.31
2023-04-16T09:35:14.712Z,101940.50
2023-04-16T09:37:41.257Z,101929.06
2023-04-16T09:40:08.331Z,101929.16
2023-04-16T09:42:36.099Z,101937.97
2023-04-16T09:45:04.920Z,101946.94
2023-04-16T09:47:42.748Z,101942.69
2023-04-16T09:50:12.472Z,101939.28
2023-04-16T09:52:39.539Z,101942.13
2023-04-16T09:55:06.461Z,101959.91
2023-04-16T09:57:32.981Z,101943.88
2023-04-16T10:00:04.406Z,101954.34
2023-04-16T10:02:31.068Z,101963.06
2023-04-16T10:04:57.962Z,101957.66
2023-04-16T10:07:28.174Z,101953.09
2023-04-16T10:09:54.741Z,101966.38
2023-04-16T10:12:21.522Z,101957.66
2023-04-16T10:14:50.119Z,101961.13
2023-04-16T10:17:17.100Z,101970.91
2023-04-16T10:19:43.703Z,101962.03
2023-04-16T10:22:10.988Z,101964.66
2023-04-16T10:24:37.748Z,101969.91
2023-04-16T10:27:04.296Z,101969.91
2023-04-16T10:29:31.137Z,101971.72
2023-04-16T10:31:57.850Z,101970.03
2023-04-16T10:34:24.703Z,101984.09
2023-04-16T10:36:52.094Z,101977.03
2023-04-16T10:39:23.172Z,101971.81
2023-04-16T10:41:51.231Z,101987.88
2023-04-16T10:44:19.033Z,101982.78
2023-04-16T10:46:48.793Z,101999.88
2023-04-16T10:49:24.017Z,101984.91
2023-04-16T10:51:59.782Z,101994.81
2023-04-16T10:54:32.136Z,101986.00
2023-04-16T10:57:06.871Z,101985.09
2023-04-16T10:59:34.854Z,101986.81
2023-04-16T11:02:02.629Z,101994.66
2023-04-16T11:04:39.195Z,101991.97
2023-04-16T11:07:11.887Z,101998.81
2023-04-16T11:09:44.404Z,102002.34
2023-04-16T11:12:12.380Z,101997.03
2023-04-16T11:14:40.374Z,101982.78
2023-04-16T11:17:06.925Z,102000.34
2023-04-16T11:19:35.550Z,101998.56
2023-04-16T11:22:02.693Z,101975.56
2023-04-16T11:24:32.562Z,101999.50
2023-04-16T11:26:59.166Z,101993.44
2023-04-16T11:29:25.721Z,101996.97
2023-04-16T11:31:52.882Z,101991.63
2023-04-16T11:34:19.515Z,102002.34
2023-04-16T11:36:46.700Z,102002.34
2023-04-16T11:39:13.255Z,102004.13
2023-04-16T11:41:46.649Z,101997.03
2023-04-16T11:44:31.380Z,102006.72
2023-04-16T11:46:57.938Z,102004.13
2023-04-16T11:49:30.498Z,102011.19
2023-04-16T11:51:57.085Z,102006.75
2023-04-16T11:54:24.066Z,102005.88
2023-04-16T11:56:52.140Z,102020.25
2023-04-16T11:59:20.194Z,102029.06
2023-04-16T12:01:48.123Z,102012.28
2023-04-16T12:04:19.848Z,102022.00
2023-04-16T12:07:14.403Z,102021.88
2023-04-16T12:09:43.830Z,102023.75
2023-04-16T12:12:29.812Z,102028.13
2023-04-16T12:14:56.628Z,102025.41
2023-04-16T12:17:23.485Z,102027.13
2023-04-16T12:19:56.399Z,102034.25
2023-04-16T12:22:30.280Z,102034.28
2023-04-16T12:24:58.887Z,102043.22
2023-04-16T12:27:25.403Z,102043.19
2023-04-16T12:30:07.511Z,102039.59
2023-04-16T12:32:34.024Z,102030.75
2023-04-16T12:35:00.664Z,102033.41
2023-04-16T12:37:27.204Z,102033.59
2023-04-16T12:39:54.326Z,102028.25
2023-04-16T12:42:21.288Z,102034.56
2023-04-16T12:44:47.867Z,102031.09
2023-04-16T12:47:14.472Z,102035.44
2023-04-16T12:49:41.022Z,102034.44
2023-04-16T12:52:07.610Z,102042.25
2023-04-16T12:54:34.132Z,102024.44
2023-04-16T12:57:01.475Z,102043.06
2023-04-16T12:59:27.999Z,102029.84
2023-04-16T13:01:54.579Z,102027.16
2023-04-16T13:04:22.754Z,102028.94
2023-04-16T13:06:51.669Z,102043.16
2023-04-16T13:09:18.166Z,102029.94
2023-04-16T13:11:44.721Z,102027.34
2023-04-16T13:14:11.271Z,102022.09
2023-04-16T13:16:37.888Z,102035.34
2023-04-16T13:19:05.067Z,102037.94
2023-04-16T13:21:31.620Z,102029.09
2023-04-16T13:23:58.490Z,102043.22
2023-04-16T13:26:25.050Z,102044.94
2023-04-16T13:28:51.594Z,102037.84
2023-04-16T13:31:18.249Z,102044.91
2023-04-16T13:33:44.830Z,102036.00
2023-04-16T13:36:11.364Z,102043.06
2023-04-16T13:38:37.911Z,102045.72
2023-04-16T13:41:04.472Z,102055.53
2023-04-16T13:43:31.028Z,102056.41
2023-04-16T13:45:57.549Z,102045.81
2023-04-16T13:48:24.130Z,102044.91
2023-04-16T13:50:50.729Z,102046.75
2023-04-16T13:53:17.346Z,102054.72
2023-04-16T13:55:44.241Z,102054.78
2023-04-16T13:58:10.780Z,102048.56
2023-04-16T14:00:37.835Z,102056.56
2023-04-16T14:03:04.539Z,102033.53
2023-04-16T14:05:31.138Z,102040.81
2023-04-16T14:07:57.738Z,102050.63
2023-04-16T14:10:24.377Z,102032.06
2023-04-16T14:12:50.915Z,102032.94
2023-04-16T14:15:17.458Z,102032.00
2023-04-16T14:17:44.118Z,102041.75
2023-04-16T14:20:12.118Z,102039.97
2023-04-16T14:22:38.784Z,102041.75
2023-04-16T14:25:06.073Z,102046.06
2023-04-16T14:27:33.115Z,102037.28
2023-04-16T14:29:59.919Z,102041.78
2023-04-16T14:32:26.870Z,102035.50
2023-04-16T14:34:53.409Z,102046.06
2023-04-16T14:37:19.975Z,102052.28
2023-04-16T14:39:46.521Z,102036.41
2023-04-16T14:42:13.060Z,102038.28
2023-04-16T14:44:39.675Z,102047.13
2023-04-16T14:47:06.286Z,102055.97
2023-04-16T14:49:33.310Z,102052.44
2023-04-16T14:52:00.899Z,102051.66
2023-04-16T14:54:27.512Z,102054.34
2023-04-16T14:56:54.146Z,102060.56
2023-04-16T14:59:20.703Z,102056.28
2023-04-16T15:01:47.400Z,102052.66
2023-04-16T15:04:14.106Z,102070.28
2023-04-16T15:06:41.995Z,102048.00
2023-04-16T15:09:08.856Z,102062.19
2023-04-16T15:11:35.580Z,102061.38
2023-04-16T15:14:02.127Z,102070.28
2023-04-16T15:16:28.697Z,102059.72
2023-04-16T15:18:55.283Z,102063.31
2023-04-16T15:21:21.793Z,102060.75
2023-04-16T15:23:48.322Z,102065.22
2023-04-16T15:26:14.911Z,102068.75
2023-04-16T15:28:41.470Z,102075.91
2023-04-16T15:31:08.142Z,102080.25
2023-04-16T15:33:34.771Z,102074.13
2023-04-16T15:36:01.259Z,102074.16
2023-04-16T15:38:31.597Z,102075.97
2023-04-16T15:40:58.369Z,102090.13
2023-04-16T15:43:27.007Z,102083.88
2023-04-16T15:45:53.739Z,102086.47
2023-04-16T15:48:20.384Z,102092.66
2023-04-16T15:50:47.000Z,102076.66
2023-04-16T15:53:13.659Z,102077.56
2023-04-16T15:55:40.204Z,102082.03
2023-04-16T15:58:06.751Z,102082.97
2023-04-16T16:00:33.304Z,102090.06
2023-04-16T16:03:00.014Z,102093.53
2023-04-16T16:05:27.660Z,102084.72
2023-04-16T16:07:54.205Z,102088.31
2023-04-16T16:10:21.609Z,102096.28
2023-04-16T16:12:48.136Z,102091.03
2023-04-16T16:15:14.680Z,102085.75
2023-04-16T16:17:41.326Z,102088.47
2023-04-16T16:20:08.011Z,102102.63
2023-04-16T16:22:34.586Z,102090.19
2023-04-16T16:25:01.096Z,102094.63
2023-04-16T16:27:27.719Z,102082.25
2023-04-16T16:29:54.279Z,102089.38
2023-04-16T16:32:20.801Z,102096.56
2023-04-16T16:34:47.348Z,102090.41
2023-04-16T16:37:13.911Z,102089.56
2023-04-16T16:39:40.480Z,102098.44
2023-04-16T16:42:07.007Z,102087.88
2023-04-16T16:44:33.564Z,102095.00
2023-04-16T16:47:00.156Z,102087.03
2023-04-16T16:49:26.741Z,102097.69
2023-04-16T16:51:53.256Z,102095.94
2023-04-16T16:54:19.822Z,102095.97
2023-04-16T16:56:46.330Z,102095.06
2023-04-16T16:59:13.088Z,102096.84
2023-04-16T17:01:41.576Z,102095.94
2023-04-16T17:04:08.225Z,102095.97
2023-04-16T17:06:34.928Z,102100.41
2023-04-16T17:09:01.610Z,102105.75
2023-04-16T17:11:28.166Z,102106.69
2023-04-16T17:13:54.729Z,102106.72
2023-04-16T17:16:21.276Z,102111.22
2023-04-16T17:18:47.880Z,102106.81
2023-04-16T17:21:16.404Z,102112.16
2023-04-16T17:23:43.291Z,102118.47
2023-04-16T17:26:09.895Z,102110.53
2023-04-16T17:28:36.466Z,102118.56
2023-04-16T17:31:02.995Z,102119.53
2023-04-16T17:33:29.513Z,102119.53
2023-04-16T17:35:56.029Z,102123.09
2023-04-16T17:38:22.559Z,102136.41
2023-04-16T17:40:49.588Z,102126.69
2023-04-16T17:43:16.105Z,102132.91
2023-04-16T17:45:42.689Z,102132.94
2023-04-16T17:48:09.383Z,102136.50
2023-04-16T17:50:38.181Z,102137.44
2023-04-16T17:53:05.993Z,102136.59
2023-04-16T17:55:32.589Z,102143.72
2023-04-16T17:57:59.143Z,102153.50
2023-04-16T18:00:25.785Z,102136.69
2023-04-16T18:02:52.460Z,102136.69
2023-04-16T18:05:19.093Z,102142.03
2023-04-16T18:07:45.634Z,102143.84
2023-04-16T18:10:12.195Z,102151.81
2023-04-16T18:12:38.816Z,102160.69
2023-04-16T18:15:06.422Z,102162.53
2023-04-16T18:17:33.109Z,102159.84
2023-04-16T18:19:59.735Z,102166.94
2023-04-16T18:22:27.597Z,102185.69
2023-04-16T18:24:54.312Z,102173.31
2023-04-16T18:27:20.985Z,102177.75
2023-04-16T18:29:49.295Z,102176.00
2023-04-16T18:32:16.388Z,102185.78
2023-04-16T18:34:43.204Z,102186.66
2023-04-16T18:37:10.666Z,102184.94
2023-04-16T18:39:37.237Z,102188.50
2023-04-16T18:42:04.636Z,102202.72
2023-04-16T18:44:31.180Z,102192.97
2023-04-16T18:46:57.799Z,102192.13
2023-04-16T18:49:24.885Z,102200.13
2023-04-16T18:51:51.456Z,102199.25
2023-04-16T18:54:18.039Z,102209.84
2023-04-16T18:56:44.607Z,102206.34
2023-04-16T18:59:11.601Z,102212.56
2023-04-16T19:01:38.538Z,102209.03
2023-04-16T19:04:05.291Z,102224.13
2023-04-16T19:06:31.901Z,102219.69
2023-04-16T19:08:58.473Z,102218.84
2023-04-16T19:11:25.049Z,102229.47
2023-04-16T19:13:51.854Z,102220.63
2023-04-16T19:16:18.438Z,102223.28
2023-04-16T19:18:45.024Z,102232.16
2023-04-16T19:21:11.682Z,102241.94
2023-04-16T19:23:38.335Z,102232.22
2023-04-16T19:26:05.091Z,102232.19
2023-04-16T19:28:31.683Z,102244.59
2023-04-16T19:30:58.698Z,102240.16
2023-04-16T19:33:25.288Z,102233.94
2023-04-16T19:35:51.861Z,102241.94
2023-04-16T19:38:18.411Z,102244.59
2023-04-16T19:40:45.473Z,102249.06
2023-04-16T19:43:12.332Z,102245.53
2023-04-16T19:45:45.716Z,102239.31
2023-04-16T19:48:12.578Z,102246.44
2023-04-16T19:50:41.872Z,102247.31
2023-04-16T19:53:08.682Z,102246.44
2023-04-16T19:55:35.197Z,102246.44
2023-04-16T19:58:01.840Z,102254.41
2023-04-16T20:00:28.391Z,102257.97
2023-04-16T20:02:55.065Z,102245.53
2023-04-16T20:05:21.690Z,102255.31
2023-04-16T20:07:48.671Z,102248.25
2023-04-16T20:10:16.774Z,102250.03
2023-04-16T20:12:43.359Z,102251.81
2023-04-16T20:15:10.127Z,102253.59
2023-04-16T20:17:36.853Z,102249.13
2023-04-16T20:20:03.567Z,102255.38
2023-04-16T20:22:30.120Z,102265.13
2023-04-16T20:24:56.681Z,102255.38
2023-04-16T20:27:23.301Z,102253.59
2023-04-16T20:29:49.882Z,102263.38
2023-04-16T20:32:16.398Z,102274.91
2023-04-16T20:34:43.009Z,102259.84
2023-04-16T20:37:09.618Z,102274.91
2023-04-16T20:39:36.196Z,102274.91
2023-04-16T20:42:02.746Z,102270.47
2023-04-16T20:44:29.317Z,102277.59
2023-04-16T20:46:56.056Z,102276.69
2023-04-16T20:49:22.786Z,102268.72
2023-04-16T20:51:49.320Z,102282.06
2023-04-16T20:54:15.825Z,102271.41
2023-04-16T20:56:42.372Z,102272.28
2023-04-16T20:59:09.458Z,102273.19
2023-04-16T21:01:36.304Z,102267.84
2023-04-16T21:04:03.095Z,102274.06
2023-04-16T21:06:29.790Z,102270.50
2023-04-16T21:08:56.334Z,102282.06
2023-04-16T21:11:22.869Z,102273.16
2023-04-16T21:13:49.447Z,102281.16
2023-04-16T21:16:16.076Z,102274.94
2023-04-16T21:18:42.698Z,102279.41
2023-04-16T21:21:09.211Z,102277.59
2023-04-16T21:23:35.801Z,102268.75
2023-04-16T21:26:02.352Z,102274.97
2023-04-16T21:28:28.994Z,102282.03
2023-04-16T21:30:55.509Z,102272.31
2023-04-16T21:33:22.086Z,102289.19
2023-04-16T21:35:52.149Z,102270.56
2023-04-16T21:38:19.535Z,102285.63
2023-04-16T21:40:46.740Z,102282.94
2023-04-16T21:43:13.274Z,102269.66
2023-04-16T21:45:39.835Z,102275.00
2023-04-16T21:48:06.802Z,102282.09
2023-04-16T21:50:33.438Z,102287.41
2023-04-16T21:53:00.003Z,102274.97
2023-04-16T21:55:26.507Z,102285.66
2023-04-16T21:57:53.049Z,102270.53
2023-04-16T22:00:19.688Z,102287.41
2023-04-16T22:02:46.409Z,102282.97
2023-04-16T22:05:13.155Z,102278.56
2023-04-16T22:07:39.692Z,102276.78
2023-04-16T22:10:06.844Z,102274.13
2023-04-16T22:12:33.384Z,102267.91
2023-04-16T22:15:02.718Z,102277.66
2023-04-16T22:17:29.847Z,102280.31
2023-04-16T22:19:56.466Z,102275.00
2023-04-16T22:22:23.043Z,102283.88
2023-04-16T22:24:49.606Z,102276.78
2023-04-16T22:27:16.167Z,102267.91
2023-04-16T22:29:42.709Z,102289.19
2023-04-16T22:32:09.293Z,102298.06
2023-04-16T22:34:35.852Z,102296.28
2023-04-16T22:37:02.419Z,102283.88
2023-04-16T22:39:29.940Z,102293.63
2023-04-16T22:41:56.490Z,102301.63
2023-04-16T22:44:23.004Z,102295.41
2023-04-16T22:46:49.586Z,102304.28
2023-04-16T22:49:16.117Z,102296.31
2023-04-16T22:51:42.670Z,102304.28
2023-04-16T22:54:09.277Z,102299.84
2023-04-16T22:56:35.836Z,102292.75
2023-04-16T22:59:02.401Z,102290.97
2023-04-16T23:01:29.103Z,102306.94
2023-04-16T23:03:55.719Z,102290.97
2023-04-16T23:06:22.231Z,102290.09
2023-04-16T23:08:48.798Z,102284.78
2023-04-16T23:11:15.329Z,102287.44
2023-04-16T23:13:41.890Z,102286.56
2023-04-16T23:16:08.657Z,102283.88
2023-04-16T23:18:35.212Z,102282.09
2023-04-16T23:21:01.774Z,102279.44
2023-04-16T23:23:28.331Z,102290.09
2023-04-16T23:25:54.945Z,102273.22
2023-04-16T23:28:21.492Z,102278.53
2023-04-16T23:30:51.480Z,102273.22
2023-04-16T23:33:18.035Z,102287.41
2023-04-16T23:35:44.549Z,102282.97
2023-04-16T23:38:11.151Z,102280.28
2023-04-16T23:40:37.649Z,102276.75
2023-04-16T23:43:04.212Z,102287.44
2023-04-16T23:45:30.778Z,102267.88
2023-04-16T23:47:57.414Z,102278.56
2023-04-16T23:50:24.008Z,102289.19
2023-04-16T23:52:50.574Z,102289.19
2023-04-16T23:55:17.121Z,102286.56
2023-04-16T23:57:43.670Z,102278.53
